Pasajes Aéreos y Vuelos Baratos a Natal

Encontranos en
En el mes de
SalidaRegresoDíasConexionesDisponibilidad
Jue 31/10/20192019-10-31Mie 06/11/20192019-11-066ConexionesVer disponibilidad>10https://an.despegar.com/ad/1040?q=shop%2Fflights%2Fresults%2Froundtrip%2FBUE%2FNAT%2F2019-10-31%2F2019-11-06%2F1%2F0%2F0
Vie 06/03/20202020-03-06Sab 21/03/20202020-03-2115ConexionesVer disponibilidad>03https://an.despegar.com/ad/1040?q=shop%2Fflights%2Fresults%2Froundtrip%2FBUE%2FNAT%2F2020-03-06%2F2020-03-21%2F1%2F0%2F0
Sab 07/03/20202020-03-07Sab 14/03/20202020-03-147ConexionesVer disponibilidad>03https://an.despegar.com/ad/1040?q=shop%2Fflights%2Fresults%2Froundtrip%2FBUE%2FNAT%2F2020-03-07%2F2020-03-14%2F1%2F0%2F0
Sab 14/03/20202020-03-14Sab 28/03/20202020-03-2814ConexionesVer disponibilidad>03https://an.despegar.com/ad/1040?q=shop%2Fflights%2Fresults%2Froundtrip%2FBUE%2FNAT%2F2020-03-14%2F2020-03-28%2F1%2F0%2F0
Sab 21/03/20202020-03-21Sab 04/04/20202020-04-0414ConexionesVer disponibilidad>03https://an.despegar.com/ad/1040?q=shop%2Fflights%2Fresults%2Froundtrip%2FBUE%2FNAT%2F2020-03-21%2F2020-04-04%2F1%2F0%2F0
Jue 26/03/20202020-03-26Mar 07/04/20202020-04-0712ConexionesVer disponibilidad>03https://an.despegar.com/ad/1040?q=shop%2Fflights%2Fresults%2Froundtrip%2FBUE%2FNAT%2F2020-03-26%2F2020-04-07%2F1%2F0%2F0
Jue 26/03/20202020-03-26Vie 03/04/20202020-04-038ConexionesVer disponibilidad>03https://an.despegar.com/ad/1040?q=shop%2Fflights%2Fresults%2Froundtrip%2FBUE%2FNAT%2F2020-03-26%2F2020-04-03%2F1%2F0%2F0
Sab 28/03/20202020-03-28Sab 11/04/20202020-04-1114ConexionesVer disponibilidad>03https://an.despegar.com/ad/1040?q=shop%2Fflights%2Fresults%2Froundtrip%2FBUE%2FNAT%2F2020-03-28%2F2020-04-11%2F1%2F0%2F0
Vie 03/04/20202020-04-03Dom 12/04/20202020-04-129ConexionesVer disponibilidad>04https://an.despegar.com/ad/1040?q=shop%2Fflights%2Fresults%2Froundtrip%2FBUE%2FNAT%2F2020-04-03%2F2020-04-12%2F1%2F0%2F0
Vie 03/04/20202020-04-03Lun 20/04/20202020-04-2017ConexionesVer disponibilidad>04https://an.despegar.com/ad/1040?q=shop%2Fflights%2Fresults%2Froundtrip%2FBUE%2FNAT%2F2020-04-03%2F2020-04-20%2F1%2F0%2F0
Vie 03/04/20202020-04-03Vie 10/04/20202020-04-107ConexionesVer disponibilidad>04https://an.despegar.com/ad/1040?q=shop%2Fflights%2Fresults%2Froundtrip%2FBUE%2FNAT%2F2020-04-03%2F2020-04-10%2F1%2F0%2F0
Vie 03/04/20202020-04-03Dom 19/04/20202020-04-1916ConexionesVer disponibilidad>04https://an.despegar.com/ad/1040?q=shop%2Fflights%2Fresults%2Froundtrip%2FBUE%2FNAT%2F2020-04-03%2F2020-04-19%2F1%2F0%2F0
Sab 04/04/20202020-04-04Dom 12/04/20202020-04-128ConexionesVer disponibilidad>04https://an.despegar.com/ad/1040?q=shop%2Fflights%2Fresults%2Froundtrip%2FBUE%2FNAT%2F2020-04-04%2F2020-04-12%2F1%2F0%2F0
Dom 05/04/20202020-04-05Dom 19/04/20202020-04-1914ConexionesVer disponibilidad>04https://an.despegar.com/ad/1040?q=shop%2Fflights%2Fresults%2Froundtrip%2FBUE%2FNAT%2F2020-04-05%2F2020-04-19%2F1%2F0%2F0
Sab 11/04/20202020-04-11Vie 15/05/20202020-05-1534ConexionesVer disponibilidad>04https://an.despegar.com/ad/1040?q=shop%2Fflights%2Fresults%2Froundtrip%2FBUE%2FNAT%2F2020-04-11%2F2020-05-15%2F1%2F0%2F0
Sab 18/04/20202020-04-18Sab 25/04/20202020-04-257ConexionesVer disponibilidad>04https://an.despegar.com/ad/1040?q=shop%2Fflights%2Fresults%2Froundtrip%2FBUE%2FNAT%2F2020-04-18%2F2020-04-25%2F1%2F0%2F0
Lun 20/04/20202020-04-20Mar 28/04/20202020-04-288ConexionesVer disponibilidad>04https://an.despegar.com/ad/1040?q=shop%2Fflights%2Fresults%2Froundtrip%2FBUE%2FNAT%2F2020-04-20%2F2020-04-28%2F1%2F0%2F0
Vie 01/05/20202020-05-01Dom 10/05/20202020-05-109ConexionesVer disponibilidad>05https://an.despegar.com/ad/1040?q=shop%2Fflights%2Fresults%2Froundtrip%2FBUE%2FNAT%2F2020-05-01%2F2020-05-10%2F1%2F0%2F0
Sab 02/05/20202020-05-02Sab 09/05/20202020-05-097ConexionesVer disponibilidad>05https://an.despegar.com/ad/1040?q=shop%2Fflights%2Fresults%2Froundtrip%2FBUE%2FNAT%2F2020-05-02%2F2020-05-09%2F1%2F0%2F0
Sab 09/05/20202020-05-09Vie 22/05/20202020-05-2213ConexionesVer disponibilidad>05https://an.despegar.com/ad/1040?q=shop%2Fflights%2Fresults%2Froundtrip%2FBUE%2FNAT%2F2020-05-09%2F2020-05-22%2F1%2F0%2F0
Sab 23/05/20202020-05-23Jue 04/06/20202020-06-0412ConexionesVer disponibilidad>05https://an.despegar.com/ad/1040?q=shop%2Fflights%2Fresults%2Froundtrip%2FBUE%2FNAT%2F2020-05-23%2F2020-06-04%2F1%2F0%2F0
Dom 24/05/20202020-05-24Jue 04/06/20202020-06-0411ConexionesVer disponibilidad>05https://an.despegar.com/ad/1040?q=shop%2Fflights%2Fresults%2Froundtrip%2FBUE%2FNAT%2F2020-05-24%2F2020-06-04%2F1%2F0%2F0
Lun 22/06/20202020-06-22Vie 03/07/20202020-07-0311ConexionesVer disponibilidad>06https://an.despegar.com/ad/1040?q=shop%2Fflights%2Fresults%2Froundtrip%2FBUE%2FNAT%2F2020-06-22%2F2020-07-03%2F1%2F0%2F0
Vie 07/08/20202020-08-07Vie 14/08/20202020-08-147ConexionesVer disponibilidad>08https://an.despegar.com/ad/1040?q=shop%2Fflights%2Fresults%2Froundtrip%2FBUE%2FNAT%2F2020-08-07%2F2020-08-14%2F1%2F0%2F0
Sab 08/08/20202020-08-08Dom 16/08/20202020-08-168ConexionesVer disponibilidad>08https://an.despegar.com/ad/1040?q=shop%2Fflights%2Fresults%2Froundtrip%2FBUE%2FNAT%2F2020-08-08%2F2020-08-16%2F1%2F0%2F0

Ver disponibilidad y otras opciones

Información general sobre Natal

Natal, que en español significa Navidad, es una ciudad brasileña localizada en el estado de Rio Grande do Norte. Atravesada por el río Potengi, la capital nordestina cuenta con playas, dunas y diferentes atracciones históricas. Anualmente recibe a dos millones de turistas y es la puerta de entrada hacia otros importantes destinos del estado.

Descargá gratis nuestra nueva app para Android y iOS.
Suscribite a las notificaciones de Chrome y Safari.
Seguinos en Facebook, Twitter e Instagram
Suscribite a nuestro newsletter aquí.